Dan Fighter — OVUE2 — position and weather

sailwx.info

Track history (hours):
 
Tides and Currents Weather Stations Pressure Air Temp Water Temp Dewpoint Dewpoint Depression Visibility Wind Speed Wind Dir Waves Ship Positions

Dan Fighter

Last reported at 2014-Jul-23 19:33 UTC. Time now 2014-Jul-24 19:19 UTC.
Position N 43°37' W 003°51'.

Length 64 m; draft 3.1 m.

Type: Cargo ship. MMSI: 220386978.

Date/timePositionNaut miles runAvg speedWind from/ knotsBaromVisibWave heightAir tempDewpointWater temp
2014-Jul-23 19:33N 43°37' W 003°51'9 8.8
2014-Jul-23 18:33N 43°36' W 003°39'9 8.7
2014-Jul-23 17:33N 43°34' W 003°27'9 8.6
2014-Jul-23 16:33N 43°30' W 003°17'8 8.4
2014-Jul-23 15:33N 43°25' W 003°08'6 6.0
2014-Jul-23 14:33N 43°20' W 003°02'0 0.0
2014-Jul-23 13:32N 43°20' W 003°02'0 0.0
2014-Jul-23 12:20N 43°20' W 003°02'  
2014-Jul-17 15:31N 50°13' W 001°47'9 8.9
2014-Jul-17 14:33N 50°15' W 001°34'7 7.1
2014-Jul-17 13:31N 50°17' W 001°23'6 5.8
2014-Jul-17 12:32N 50°19' W 001°14'5 4.7
2014-Jul-17 11:30N 50°20' W 001°07'5 4.8
2014-Jul-17 10:33N 50°21' W 000°60'7 6.4
2014-Jul-17 09:31N 50°23' W 000°50'8 8.3
2014-Jul-17 08:34N 50°25' W 000°38'10 9.4
2014-Jul-17 07:33N 50°28' W 000°24'9 8.4
2014-Jul-17 06:30N 50°30' W 000°10'8 8.2
2014-Jul-17 05:33N 50°33' E 000°01'7 7.5
2014-Jul-17 04:33N 50°35' E 000°13'7 6.7
2014-Jul-17 03:33N 50°36' E 000°23'6 5.6
2014-Jul-17 02:33N 50°38' E 000°31'5 4.8
2014-Jul-17 01:33N 50°40' E 000°38'4 4.3
2014-Jul-17 00:33N 50°43' E 000°43'4 4.5
2014-Jul-16 23:34N 50°45' E 000°49'6 5.8
2014-Jul-16 22:33N 50°49' E 000°57'7 7.2
2014-Jul-16 21:33N 50°53' E 001°06'8 7.6
2014-Jul-16 20:33N 50°58' E 001°15'7 7.5
2014-Jul-16 19:34N 51°03' E 001°24'6 6.3
2014-Jul-16 18:33N 51°07' E 001°32'4 4.3
2014-Jul-16 17:33N 51°10' E 001°37'3 3.5
2014-Jul-16 16:34N 51°12' E 001°41'3 3.0
2014-Jul-16 15:33N 51°14' E 001°45'4 3.6
2014-Jul-16 14:33N 51°17' E 001°47'5 4.9
2014-Jul-16 13:33N 51°22' E 001°51'7 6.6
2014-Jul-16 12:33N 51°28' E 001°55'8 8.3
2014-Jul-16 11:33N 51°33' E 002°04'9 8.5
2014-Jul-16 10:33N 51°40' E 002°14'8 8.1
2014-Jul-16 09:33N 51°45' E 002°23'8 7.1
2014-Jul-16 08:25N 51°51' E 002°32'5 5.9
2014-Jul-16 07:30N 51°56' E 002°37'5 5.4
2014-Jul-16 06:33N 51°60' E 002°42'5 4.9
2014-Jul-16 05:30N 52°04' E 002°48'4 4.4
2014-Jul-16 04:31N 52°07' E 002°52'10 4.8
2014-Jul-16 02:20N 52°15' E 003°02'28 7.3
2014-Jul-15 22:27N 52°38' E 003°31'8 7.1
2014-Jul-15 21:18N 52°44' E 003°39'17 5.3
2014-Jul-15 18:08N 52°57' E 003°57'3 4.4
2014-Jul-15 17:33N 52°59' E 003°60'5 4.6
2014-Jul-15 16:24N 53°02' E 004°06'123 4.4
2014-Jul-14 12:33N 54°47' E 005°54'5 4.5
2014-Jul-14 11:33N 54°51' E 005°60'4 4.2
2014-Jul-14 10:33N 54°54' E 006°05'4 4.1
2014-Jul-14 09:29N 54°57' E 006°10'  
Track history (hours):
 
Tides and Currents Weather Stations Pressure Air Temp Water Temp Dewpoint Dewpoint Depression Visibility Wind Speed Wind Dir Waves Ship Positions

Dan Fighter

Last reported at 2014-Jul-23 19:33 UTC. Time now 2014-Jul-24 19:19 UTC.
Position N 43°37' W 003°51'.

Length 64 m; draft 3.1 m.

Type: Cargo ship. MMSI: 220386978.

Date/timePositionNaut miles runAvg speedWind from/ knotsBaromVisibWave heightAir tempDewpointWater temp
2014-Jul-23 19:33N 43°37' W 003°51'9 8.8
2014-Jul-23 18:33N 43°36' W 003°39'9 8.7
2014-Jul-23 17:33N 43°34' W 003°27'9 8.6
2014-Jul-23 16:33N 43°30' W 003°17'8 8.4
2014-Jul-23 15:33N 43°25' W 003°08'6 6.0
2014-Jul-23 14:33N 43°20' W 003°02'0 0.0
2014-Jul-23 13:32N 43°20' W 003°02'0 0.0
2014-Jul-23 12:20N 43°20' W 003°02'  
2014-Jul-17 15:31N 50°13' W 001°47'9 8.9
2014-Jul-17 14:33N 50°15' W 001°34'7 7.1
2014-Jul-17 13:31N 50°17' W 001°23'6 5.8
2014-Jul-17 12:32N 50°19' W 001°14'5 4.7
2014-Jul-17 11:30N 50°20' W 001°07'5 4.8
2014-Jul-17 10:33N 50°21' W 000°60'7 6.4
2014-Jul-17 09:31N 50°23' W 000°50'8 8.3
2014-Jul-17 08:34N 50°25' W 000°38'10 9.4
2014-Jul-17 07:33N 50°28' W 000°24'9 8.4
2014-Jul-17 06:30N 50°30' W 000°10'8 8.2
2014-Jul-17 05:33N 50°33' E 000°01'7 7.5
2014-Jul-17 04:33N 50°35' E 000°13'7 6.7
2014-Jul-17 03:33N 50°36' E 000°23'6 5.6
2014-Jul-17 02:33N 50°38' E 000°31'5 4.8
2014-Jul-17 01:33N 50°40' E 000°38'4 4.3
2014-Jul-17 00:33N 50°43' E 000°43'4 4.5
2014-Jul-16 23:34N 50°45' E 000°49'6 5.8
2014-Jul-16 22:33N 50°49' E 000°57'7 7.2
2014-Jul-16 21:33N 50°53' E 001°06'8 7.6
2014-Jul-16 20:33N 50°58' E 001°15'7 7.5
2014-Jul-16 19:34N 51°03' E 001°24'6 6.3
2014-Jul-16 18:33N 51°07' E 001°32'4 4.3
2014-Jul-16 17:33N 51°10' E 001°37'3 3.5
2014-Jul-16 16:34N 51°12' E 001°41'3 3.0
2014-Jul-16 15:33N 51°14' E 001°45'4 3.6
2014-Jul-16 14:33N 51°17' E 001°47'5 4.9
2014-Jul-16 13:33N 51°22' E 001°51'7 6.6
2014-Jul-16 12:33N 51°28' E 001°55'8 8.3
2014-Jul-16 11:33N 51°33' E 002°04'9 8.5
2014-Jul-16 10:33N 51°40' E 002°14'8 8.1
2014-Jul-16 09:33N 51°45' E 002°23'8 7.1
2014-Jul-16 08:25N 51°51' E 002°32'5 5.9
2014-Jul-16 07:30N 51°56' E 002°37'5 5.4
2014-Jul-16 06:33N 51°60' E 002°42'5 4.9
2014-Jul-16 05:30N 52°04' E 002°48'4 4.4
2014-Jul-16 04:31N 52°07' E 002°52'10 4.8
2014-Jul-16 02:20N 52°15' E 003°02'28 7.3
2014-Jul-15 22:27N 52°38' E 003°31'8 7.1
2014-Jul-15 21:18N 52°44' E 003°39'17 5.3
2014-Jul-15 18:08N 52°57' E 003°57'3 4.4
2014-Jul-15 17:33N 52°59' E 003°60'5 4.6
2014-Jul-15 16:24N 53°02' E 004°06'123 4.4
2014-Jul-14 12:33N 54°47' E 005°54'5 4.5
2014-Jul-14 11:33N 54°51' E 005°60'4 4.2
2014-Jul-14 10:33N 54°54' E 006°05'4 4.1
2014-Jul-14 09:29N 54°57' E 006°10'  

Dump ship's entire track history